Time;durP1;ratioP1;P1;durP2;ratioP2;P2;SDS_P1;SDS_P2;PMS_P1;PMS_P2;Temp;Humidity;BMP_temperature;BMP_pressure;BME280_temperature;BME280_humidity;BME280_pressure;Samples;Min_cycle;Max_cycle;Signal;HPM_P1;HPM_P2
2024/02/01 00:02:16;;;;;;;9.15;6.80;;;;;;;;;;5030990;28;20056;-79
2024/02/01 00:04:42;;;;;;;11.15;7.80;;;;;;;;;;5008657;28;20041;-79
2024/02/01 00:07:07;;;;;;;10.38;7.72;;;;;;;;;;5007351;28;20455;-78
2024/02/01 00:09:32;;;;;;;11.38;7.50;;;;;;;;;;5030281;28;20084;-79
2024/02/01 00:11:58;;;;;;;11.55;7.72;;;;;;;;;;4999139;28;20042;-79
2024/02/01 00:14:23;;;;;;;9.57;7.32;;;;;;;;;;5006312;28;20025;-79
2024/02/01 00:16:48;;;;;;;9.95;7.53;;;;;;;;;;4994051;28;20088;-78
2024/02/01 00:19:19;;;;;;;9.80;7.55;;;;;;;;;;4990054;28;20295;-79
2024/02/01 00:21:44;;;;;;;11.05;7.90;;;;;;;;;;5015475;28;20130;-79
2024/02/01 00:24:09;;;;;;;11.65;7.38;;;;;;;;;;5037457;28;20049;-79
2024/02/01 00:26:35;;;;;;;9.20;7.28;;;;;;;;;;5012099;28;20039;-79
2024/02/01 00:29:00;;;;;;;10.43;7.75;;;;;;;;;;4996506;28;20038;-78
2024/02/01 00:31:25;;;;;;;10.15;7.63;;;;;;;;;;5012188;28;20140;-78
2024/02/01 00:33:51;;;;;;;11.65;7.90;;;;;;;;;;5011831;28;20174;-78
2024/02/01 00:36:16;;;;;;;9.48;7.38;;;;;;;;;;5010663;28;20065;-78
2024/02/01 00:38:41;;;;;;;10.38;7.55;;;;;;;;;;5008490;28;20033;-78
2024/02/01 00:41:07;;;;;;;11.85;8.23;;;;;;;;;;5019593;28;20072;-78
2024/02/01 00:43:33;;;;;;;11.70;7.93;;;;;;;;;;4995572;28;20490;-77
2024/02/01 00:45:58;;;;;;;10.57;7.72;;;;;;;;;;4991239;28;20588;-77
2024/02/01 00:48:23;;;;;;;10.13;7.82;;;;;;;;;;5029296;28;20116;-78
2024/02/01 00:50:49;;;;;;;9.85;7.68;;;;;;;;;;5012499;28;20044;-78
2024/02/01 00:53:14;;;;;;;11.50;7.88;;;;;;;;;;5012147;28;20060;-77
2024/02/01 00:55:40;;;;;;;10.20;7.78;;;;;;;;;;5023337;28;20040;-78
2024/02/01 00:58:05;;;;;;;10.73;8.00;;;;;;;;;;5012696;28;20527;-78
2024/02/01 01:00:30;;;;;;;9.90;7.63;;;;;;;;;;5008814;28;20057;-79
2024/02/01 01:02:56;;;;;;;11.57;8.25;;;;;;;;;;4992946;28;20038;-78
2024/02/01 01:05:21;;;;;;;9.98;7.57;;;;;;;;;;5012483;28;20038;-78
2024/02/01 01:07:47;;;;;;;10.95;7.70;;;;;;;;;;5031273;28;20029;-78
2024/02/01 01:10:12;;;;;;;10.60;8.10;;;;;;;;;;5032056;28;20036;-78
2024/02/01 01:12:37;;;;;;;10.00;7.78;;;;;;;;;;5016417;28;20041;-76
2024/02/01 01:15:04;;;;;;;10.30;7.82;;;;;;;;;;5000800;28;20033;-78
2024/02/01 01:17:35;;;;;;;10.90;8.13;;;;;;;;;;5011358;28;20032;-78
2024/02/01 01:20:10;;;;;;;10.57;8.23;;;;;;;;;;5032474;28;20114;-79
2024/02/01 01:22:35;;;;;;;10.88;8.10;;;;;;;;;;5038240;28;20092;-76
2024/02/01 01:25:00;;;;;;;11.75;8.77;;;;;;;;;;5007410;28;20042;-78
2024/02/01 01:27:26;;;;;;;12.95;7.93;;;;;;;;;;5025048;28;20034;-78
2024/02/01 01:29:51;;;;;;;10.65;8.00;;;;;;;;;;4999715;28;20053;-79
2024/02/01 01:32:17;;;;;;;11.27;8.20;;;;;;;;;;5012876;28;20542;-77
2024/02/01 01:34:42;;;;;;;10.77;8.35;;;;;;;;;;5005825;28;20467;-77
2024/02/01 01:37:07;;;;;;;11.13;7.72;;;;;;;;;;5005349;28;20037;-78
2024/02/01 01:39:33;;;;;;;10.88;8.27;;;;;;;;;;5031171;28;20537;-78
2024/02/01 01:41:58;;;;;;;11.82;8.48;;;;;;;;;;5030546;28;20111;-78
2024/02/01 01:44:24;;;;;;;11.23;8.38;;;;;;;;;;5031521;28;20169;-78
2024/02/01 01:46:51;;;;;;;9.82;7.85;;;;;;;;;;5034569;28;20515;-78
2024/02/01 01:49:17;;;;;;;11.48;8.32;;;;;;;;;;5032669;28;20026;-78
2024/02/01 01:51:48;;;;;;;13.07;8.45;;;;;;;;;;5033643;28;20029;-78
2024/02/01 01:54:14;;;;;;;10.00;7.70;;;;;;;;;;5032621;28;20044;-78
2024/02/01 01:56:40;;;;;;;10.13;8.20;;;;;;;;;;5014495;28;20120;-78
2024/02/01 01:59:06;;;;;;;11.65;8.30;;;;;;;;;;5015108;28;20103;-79
2024/02/01 02:01:37;;;;;;;11.25;8.05;;;;;;;;;;5016581;28;20041;-78
2024/02/01 02:04:03;;;;;;;10.48;7.90;;;;;;;;;;5031611;28;20116;-78
2024/02/01 02:06:28;;;;;;;10.65;8.30;;;;;;;;;;5028721;28;20064;-78
2024/02/01 02:11:45;;;;;;;11.10;8.23;;;;;;;;;;5033940;28;20237;-77
2024/02/01 02:14:11;;;;;;;11.45;8.05;;;;;;;;;;5033633;28;20128;-78
2024/02/01 02:16:37;;;;;;;11.90;8.75;;;;;;;;;;5030860;28;20037;-79
2024/02/01 02:19:09;;;;;;;11.30;7.85;;;;;;;;;;5019452;28;20030;-77
2024/02/01 02:21:34;;;;;;;11.07;7.95;;;;;;;;;;5026673;28;20580;-75
2024/02/01 02:23:59;;;;;;;12.55;8.25;;;;;;;;;;5018579;28;20101;-78
2024/02/01 02:26:24;;;;;;;10.75;7.95;;;;;;;;;;4994395;28;20361;-79
2024/02/01 02:28:50;;;;;;;11.57;8.10;;;;;;;;;;5031061;28;20037;-78
2024/02/01 02:31:15;;;;;;;11.27;8.07;;;;;;;;;;5031516;28;20126;-78
2024/02/01 02:33:40;;;;;;;11.95;8.38;;;;;;;;;;4998235;28;20423;-78
2024/02/01 02:36:09;;;;;;;11.63;8.05;;;;;;;;;;5016589;28;20034;-79
2024/02/01 02:38:34;;;;;;;9.82;7.53;;;;;;;;;;5029700;28;20045;-78
2024/02/01 02:41:00;;;;;;;11.38;7.97;;;;;;;;;;5028371;28;20060;-78
2024/02/01 02:43:25;;;;;;;9.90;7.53;;;;;;;;;;5028161;28;20040;-79
2024/02/01 02:45:50;;;;;;;11.27;8.25;;;;;;;;;;5003737;28;20186;-78
2024/02/01 02:48:16;;;;;;;11.75;8.23;;;;;;;;;;5027547;28;20044;-78
2024/02/01 02:50:42;;;;;;;11.25;8.40;;;;;;;;;;5015518;28;20049;-78
2024/02/01 02:53:07;;;;;;;11.38;8.13;;;;;;;;;;5027741;28;20061;-78
2024/02/01 02:55:33;;;;;;;11.93;8.52;;;;;;;;;;5017131;28;20033;-79
2024/02/01 02:57:58;;;;;;;11.07;8.50;;;;;;;;;;5010121;28;20033;-78
2024/02/01 03:00:23;;;;;;;11.13;8.48;;;;;;;;;;5009103;28;20042;-79
2024/02/01 03:02:49;;;;;;;11.00;7.88;;;;;;;;;;5019127;28;20702;-79
2024/02/01 03:05:15;;;;;;;10.45;8.32;;;;;;;;;;5013386;28;20064;-78
2024/02/01 03:07:44;;;;;;;11.35;8.52;;;;;;;;;;5014125;28;20052;-79
2024/02/01 03:10:10;;;;;;;11.63;8.85;;;;;;;;;;5033468;28;20042;-79
2024/02/01 03:12:35;;;;;;;11.02;8.60;;;;;;;;;;5023277;28;20040;-78
2024/02/01 03:15:00;;;;;;;11.73;8.23;;;;;;;;;;5014218;28;20085;-79
2024/02/01 03:17:26;;;;;;;11.32;8.43;;;;;;;;;;5014526;28;20508;-79
2024/02/01 03:19:52;;;;;;;12.45;8.60;;;;;;;;;;5028897;28;20050;-79
2024/02/01 03:22:20;;;;;;;11.25;8.23;;;;;;;;;;5040001;28;20033;-78
2024/02/01 03:24:46;;;;;;;11.90;8.95;;;;;;;;;;5004971;28;20393;-78
2024/02/01 03:27:11;;;;;;;11.80;8.93;;;;;;;;;;5009111;28;20041;-79
2024/02/01 03:29:37;;;;;;;12.60;8.75;;;;;;;;;;5012513;28;20128;-78
2024/02/01 03:32:05;;;;;;;12.70;9.02;;;;;;;;;;5013385;28;20099;-79
2024/02/01 03:34:31;;;;;;;12.05;8.63;;;;;;;;;;5014435;28;20278;-76
2024/02/01 03:36:57;;;;;;;12.20;8.30;;;;;;;;;;5031003;28;20104;-78
2024/02/01 03:39:22;;;;;;;11.77;8.68;;;;;;;;;;5029974;28;20025;-77
2024/02/01 03:41:54;;;;;;;12.18;8.73;;;;;;;;;;5011338;28;20168;-78
2024/02/01 03:44:19;;;;;;;11.85;8.23;;;;;;;;;;4995426;28;20108;-78
2024/02/01 03:46:47;;;;;;;12.07;8.95;;;;;;;;;;5003947;28;20242;-78
2024/02/01 03:49:20;;;;;;;13.18;8.98;;;;;;;;;;5015822;28;20044;-78
2024/02/01 03:51:46;;;;;;;12.07;8.77;;;;;;;;;;5032418;28;20537;-77
2024/02/01 03:54:13;;;;;;;11.85;9.13;;;;;;;;;;5017296;28;20227;-80
2024/02/01 03:56:39;;;;;;;11.57;9.02;;;;;;;;;;5015668;28;20065;-78
2024/02/01 03:59:05;;;;;;;12.43;9.00;;;;;;;;;;5030513;28;20072;-78
2024/02/01 04:01:31;;;;;;;14.20;9.35;;;;;;;;;;4994646;28;20129;-79
2024/02/01 04:03:56;;;;;;;11.20;8.52;;;;;;;;;;5031531;28;20041;-79
2024/02/01 04:06:24;;;;;;;12.40;9.18;;;;;;;;;;5036188;28;20053;-80
2024/02/01 04:08:50;;;;;;;12.43;9.27;;;;;;;;;;5025664;28;20044;-79
2024/02/01 04:11:16;;;;;;;11.88;9.13;;;;;;;;;;5026878;28;20053;-81
2024/02/01 04:13:41;;;;;;;12.43;9.10;;;;;;;;;;5031538;28;20025;-79
2024/02/01 04:16:06;;;;;;;12.90;9.65;;;;;;;;;;5053984;28;20021;-78
2024/02/01 04:18:32;;;;;;;14.07;9.68;;;;;;;;;;5047483;28;20037;-78
2024/02/01 04:20:58;;;;;;;12.18;8.70;;;;;;;;;;5026652;28;20041;-78
2024/02/01 04:23:23;;;;;;;12.45;8.80;;;;;;;;;;4986907;28;20034;-78
2024/02/01 04:25:48;;;;;;;12.55;9.50;;;;;;;;;;5014382;28;20025;-78
2024/02/01 04:28:16;;;;;;;13.18;9.23;;;;;;;;;;5030429;28;20038;-80
2024/02/01 04:30:43;;;;;;;13.50;9.70;;;;;;;;;;5014717;28;20462;-80
2024/02/01 04:33:08;;;;;;;11.60;8.93;;;;;;;;;;4999663;28;20068;-78
2024/02/01 04:35:33;;;;;;;12.63;9.18;;;;;;;;;;5013296;28;20477;-77
2024/02/01 04:37:59;;;;;;;13.15;9.52;;;;;;;;;;5008918;28;20136;-78
2024/02/01 04:40:25;;;;;;;11.65;8.95;;;;;;;;;;5013593;28;20129;-78
2024/02/01 04:42:51;;;;;;;12.63;9.23;;;;;;;;;;5031673;28;20041;-80
2024/02/01 04:45:18;;;;;;;13.13;9.65;;;;;;;;;;5013484;28;20034;-78
2024/02/01 04:47:43;;;;;;;14.32;9.68;;;;;;;;;;5011458;28;20022;-77
2024/02/01 04:50:09;;;;;;;12.70;9.38;;;;;;;;;;5031540;28;20496;-78
2024/02/01 04:52:34;;;;;;;13.50;9.52;;;;;;;;;;5012581;28;20033;-84
2024/02/01 04:54:59;;;;;;;13.98;10.10;;;;;;;;;;5031306;28;20053;-81
2024/02/01 04:57:24;;;;;;;13.80;9.73;;;;;;;;;;5003931;28;20134;-78
2024/02/01 04:59:51;;;;;;;13.73;9.32;;;;;;;;;;5002340;28;20432;-79
2024/02/01 05:02:16;;;;;;;12.40;8.63;;;;;;;;;;5030870;28;20438;-78
2024/02/01 05:04:42;;;;;;;11.52;8.68;;;;;;;;;;5014277;28;20038;-75
2024/02/01 05:07:07;;;;;;;14.52;9.02;;;;;;;;;;5013708;28;20500;-75
2024/02/01 05:09:34;;;;;;;14.02;9.57;;;;;;;;;;5009594;28;20022;-74
2024/02/01 05:12:01;;;;;;;13.00;9.25;;;;;;;;;;5034612;28;20057;-78
2024/02/01 05:14:27;;;;;;;14.15;10.00;;;;;;;;;;5006944;28;20036;-75
2024/02/01 05:16:52;;;;;;;15.05;9.52;;;;;;;;;;5012973;28;20406;-77
2024/02/01 05:19:17;;;;;;;12.27;8.73;;;;;;;;;;5012292;28;20097;-75
2024/02/01 05:21:43;;;;;;;13.15;9.65;;;;;;;;;;4997407;28;20069;-78
2024/02/01 05:24:13;;;;;;;15.52;10.32;;;;;;;;;;5019545;28;20049;-77
2024/02/01 05:26:38;;;;;;;13.77;9.88;;;;;;;;;;5001894;28;20067;-76
2024/02/01 05:29:09;;;;;;;12.65;9.65;;;;;;;;;;5027404;28;20045;-77
2024/02/01 05:31:36;;;;;;;13.85;9.52;;;;;;;;;;4995776;28;20038;-78
2024/02/01 05:34:01;;;;;;;13.60;9.43;;;;;;;;;;5012242;28;20034;-78
2024/02/01 05:36:26;;;;;;;13.07;9.45;;;;;;;;;;5031289;28;20029;-77
2024/02/01 05:38:51;;;;;;;14.02;9.65;;;;;;;;;;5028970;28;20065;-78
2024/02/01 05:41:17;;;;;;;12.35;9.35;;;;;;;;;;5007922;28;20136;-76
2024/02/01 05:43:43;;;;;;;12.07;9.00;;;;;;;;;;5027543;28;20033;-76
2024/02/01 05:46:09;;;;;;;13.82;9.50;;;;;;;;;;5029958;28;20042;-80
2024/02/01 05:48:35;;;;;;;13.38;9.52;;;;;;;;;;4989875;28;20026;-80
2024/02/01 05:51:00;;;;;;;11.18;9.30;;;;;;;;;;5010373;28;20045;-77
2024/02/01 05:53:25;;;;;;;13.55;9.88;;;;;;;;;;5022447;28;20106;-78
2024/02/01 05:55:51;;;;;;;13.27;9.55;;;;;;;;;;5008069;28;20488;-78
2024/02/01 05:58:16;;;;;;;12.82;9.73;;;;;;;;;;5023146;28;20056;-80
2024/02/01 06:00:42;;;;;;;12.85;9.35;;;;;;;;;;5005776;28;20049;-79
2024/02/01 06:03:10;;;;;;;12.02;9.27;;;;;;;;;;5010408;28;20075;-76
2024/02/01 06:05:36;;;;;;;13.23;9.52;;;;;;;;;;5024776;28;20044;-79
2024/02/01 06:08:01;;;;;;;14.82;10.63;;;;;;;;;;5003248;28;20034;-76
2024/02/01 06:10:26;;;;;;;14.38;9.85;;;;;;;;;;5014225;28;20068;-75
2024/02/01 06:12:53;;;;;;;14.63;9.82;;;;;;;;;;5034950;28;20124;-79
2024/02/01 06:15:19;;;;;;;13.23;9.57;;;;;;;;;;5011315;28;20083;-81
2024/02/01 06:17:44;;;;;;;13.85;9.48;;;;;;;;;;5026754;28;20040;-81
2024/02/01 06:20:10;;;;;;;15.07;9.80;;;;;;;;;;5015137;28;20084;-83
2024/02/01 06:22:36;;;;;;;13.23;9.80;;;;;;;;;;5016421;28;20042;-82
2024/02/01 06:25:03;;;;;;;13.85;10.30;;;;;;;;;;5013561;28;20041;-82
2024/02/01 06:27:28;;;;;;;14.80;10.70;;;;;;;;;;5019431;28;20038;-81
2024/02/01 06:29:54;;;;;;;13.90;9.82;;;;;;;;;;5027335;28;20045;-82
2024/02/01 06:32:22;;;;;;;14.77;10.25;;;;;;;;;;5006574;28;20045;-80
2024/02/01 06:34:54;;;;;;;13.05;9.90;;;;;;;;;;5000149;28;20041;-79
2024/02/01 06:37:20;;;;;;;12.52;9.65;;;;;;;;;;5014340;28;20041;-79
2024/02/01 06:40:09;;;;;;;13.73;9.60;;;;;;;;;;5009087;28;20045;-78
2024/02/01 06:42:33;;;;;;;15.27;9.77;;;;;;;;;;5031213;28;20125;-77
2024/02/01 06:47:49;;;;;;;13.82;9.80;;;;;;;;;;5031057;28;20052;-76
2024/02/01 06:50:34;;;;;;;14.98;10.30;;;;;;;;;;5015092;28;20050;-77
2024/02/01 06:53:08;;;;;;;13.55;9.98;;;;;;;;;;4997957;28;20420;-82
2024/02/01 06:55:43;;;;;;;12.00;9.35;;;;;;;;;;5010466;28;20029;-79
2024/02/01 06:58:15;;;;;;;14.82;9.95;;;;;;;;;;5016920;28;20772;-78
2024/02/01 07:00:51;;;;;;;15.10;10.27;;;;;;;;;;5019185;28;20072;-80
2024/02/01 07:16:22;;;;;;;13.77;10.45;;;;;;;;;;5030201;28;20044;-76
2024/02/01 07:18:57;;;;;;;50.00;32.15;;;;;;;;;;5027014;28;20037;-73
2024/02/01 07:21:31;;;;;;;23.73;15.90;;;;;;;;;;5035482;28;20493;-78
2024/02/01 07:24:27;;;;;;;23.05;12.23;;;;;;;;;;4996676;28;20088;-79
2024/02/01 07:57:35;;;;;;;18.77;12.30;;;;;;;;;;4992985;28;20033;-78
2024/02/01 07:59:47;;;;;;;16.23;11.35;;;;;;;;;;5005927;28;20381;-79
2024/02/01 08:02:24;;;;;;;14.93;11.05;;;;;;;;;;5014931;28;20107;-78
2024/02/01 08:07:54;;;;;;;15.98;11.65;;;;;;;;;;5001174;28;20033;-78
2024/02/01 08:10:19;;;;;;;16.70;11.93;;;;;;;;;;5017361;28;20033;-78
2024/02/01 08:12:47;;;;;;;17.55;12.20;;;;;;;;;;4996948;28;20096;-78
2024/02/01 08:15:18;;;;;;;15.82;11.40;;;;;;;;;;5031501;28;20127;-79
2024/02/01 08:17:46;;;;;;;14.98;11.38;;;;;;;;;;5006298;28;20026;-81
2024/02/01 08:20:12;;;;;;;16.05;11.43;;;;;;;;;;5006136;28;20041;-78
2024/02/01 08:22:41;;;;;;;15.70;11.77;;;;;;;;;;5015737;28;20120;-79
2024/02/01 08:25:07;;;;;;;17.02;11.55;;;;;;;;;;5028177;28;20124;-79
2024/02/01 08:27:32;;;;;;;15.55;11.40;;;;;;;;;;5033132;28;20029;-79
2024/02/01 08:30:12;;;;;;;18.13;11.95;;;;;;;;;;5015622;28;20513;-77
2024/02/01 08:32:41;;;;;;;15.48;11.35;;;;;;;;;;5024973;28;20052;-79
2024/02/01 08:35:10;;;;;;;14.98;11.10;;;;;;;;;;5034411;28;20027;-78
2024/02/01 08:37:38;;;;;;;15.50;11.00;;;;;;;;;;5034421;28;20047;-78
2024/02/01 08:40:16;;;;;;;15.15;11.02;;;;;;;;;;5012772;28;20034;-80
2024/02/01 08:42:48;;;;;;;17.05;11.93;;;;;;;;;;5015543;28;20060;-78
2024/02/01 08:45:16;;;;;;;16.30;11.55;;;;;;;;;;5015315;28;20488;-78
2024/02/01 08:47:42;;;;;;;15.55;11.35;;;;;;;;;;5016556;28;20160;-78
2024/02/01 08:50:09;;;;;;;15.23;11.38;;;;;;;;;;5012678;28;20382;-78
2024/02/01 08:52:38;;;;;;;14.80;11.15;;;;;;;;;;5034865;28;20459;-78
2024/02/01 08:55:10;;;;;;;15.65;11.90;;;;;;;;;;5024229;28;20044;-78
2024/02/01 08:57:37;;;;;;;17.98;12.10;;;;;;;;;;5032129;28;20041;-79
2024/02/01 09:00:21;;;;;;;17.33;12.18;;;;;;;;;;5006097;28;20053;-80
2024/02/01 09:02:46;;;;;;;17.02;12.85;;;;;;;;;;5013744;28;20029;-79
2024/02/01 09:05:19;;;;;;;17.55;12.65;;;;;;;;;;5005796;28;20141;-79
2024/02/01 09:07:45;;;;;;;17.98;12.57;;;;;;;;;;5000198;28;20049;-79
2024/02/01 09:10:10;;;;;;;16.65;12.68;;;;;;;;;;5038205;28;20049;-79
2024/02/01 09:12:36;;;;;;;18.77;12.98;;;;;;;;;;5033370;28;20068;-79
2024/02/01 09:15:01;;;;;;;16.98;12.48;;;;;;;;;;5032869;28;20250;-79
2024/02/01 09:17:27;;;;;;;17.83;12.80;;;;;;;;;;5016370;28;20107;-79
2024/02/01 09:19:52;;;;;;;17.42;12.55;;;;;;;;;;5018175;28;20096;-80
2024/02/01 09:22:17;;;;;;;17.30;12.63;;;;;;;;;;5032682;28;20033;-80
2024/02/01 09:24:43;;;;;;;18.10;12.30;;;;;;;;;;5014497;28;20486;-79
2024/02/01 09:27:08;;;;;;;17.90;13.13;;;;;;;;;;5015308;28;20492;-80
2024/02/01 09:29:34;;;;;;;18.13;12.43;;;;;;;;;;5012197;28;20059;-80
2024/02/01 09:32:00;;;;;;;17.23;11.95;;;;;;;;;;5012825;28;20545;-79
2024/02/01 09:34:25;;;;;;;17.38;12.50;;;;;;;;;;5033624;28;20109;-81
2024/02/01 09:36:51;;;;;;;16.10;11.98;;;;;;;;;;5033142;28;20045;-80
2024/02/01 09:39:16;;;;;;;14.50;10.65;;;;;;;;;;5029267;28;20046;-80
2024/02/01 09:41:42;;;;;;;15.23;11.80;;;;;;;;;;5032228;28;20052;-80
2024/02/01 09:44:07;;;;;;;16.02;11.88;;;;;;;;;;4988566;28;20049;-79
2024/02/01 09:46:34;;;;;;;15.75;12.23;;;;;;;;;;5015709;28;20061;-80
2024/02/01 09:48:59;;;;;;;17.58;12.65;;;;;;;;;;4990658;28;20128;-80
2024/02/01 09:51:26;;;;;;;15.85;11.70;;;;;;;;;;4995706;28;20054;-79
2024/02/01 09:53:51;;;;;;;15.27;12.10;;;;;;;;;;5006471;28;20033;-79
2024/02/01 09:56:17;;;;;;;15.40;10.98;;;;;;;;;;5026280;28;20037;-79
2024/02/01 09:58:43;;;;;;;16.50;12.00;;;;;;;;;;4999452;28;20037;-79
2024/02/01 10:01:10;;;;;;;16.75;11.95;;;;;;;;;;5024515;28;20179;-78
2024/02/01 10:03:54;;;;;;;15.80;11.48;;;;;;;;;;5005701;28;20056;-79
2024/02/01 10:06:25;;;;;;;16.73;11.18;;;;;;;;;;5022091;28;20049;-78
2024/02/01 10:08:53;;;;;;;16.70;11.80;;;;;;;;;;5047910;28;20028;-78
2024/02/01 10:11:24;;;;;;;14.50;11.23;;;;;;;;;;5034804;28;20077;-79
2024/02/01 10:13:49;;;;;;;15.48;11.80;;;;;;;;;;5031205;28;20081;-78
2024/02/01 10:16:16;;;;;;;16.27;12.10;;;;;;;;;;5039394;28;20037;-79
2024/02/01 10:18:42;;;;;;;26.38;14.55;;;;;;;;;;5028252;28;20033;-79
2024/02/01 10:21:21;;;;;;;35.88;22.60;;;;;;;;;;4989822;28;20052;-77
2024/02/01 10:24:16;;;;;;;58.15;33.70;;;;;;;;;;5009096;28;20033;-78
2024/02/01 10:26:41;;;;;;;57.08;33.65;;;;;;;;;;5033943;28;20045;-78
2024/02/01 10:29:07;;;;;;;56.15;32.38;;;;;;;;;;5029361;28;20233;-79
2024/02/01 10:31:33;;;;;;;49.90;29.25;;;;;;;;;;5046613;28;20033;-79
2024/02/01 10:34:07;;;;;;;42.05;27.00;;;;;;;;;;5016787;28;20175;-79
2024/02/01 10:36:36;;;;;;;40.42;25.35;;;;;;;;;;5009386;28;20160;-79
2024/02/01 10:39:02;;;;;;;43.50;25.48;;;;;;;;;;5035314;28;20060;-80
2024/02/01 10:41:28;;;;;;;40.22;24.77;;;;;;;;;;5038099;28;20018;-80
2024/02/01 10:43:53;;;;;;;38.85;23.05;;;;;;;;;;5051694;28;20034;-82
2024/02/01 10:46:28;;;;;;;33.85;21.48;;;;;;;;;;5033854;28;20618;-81
2024/02/01 10:49:01;;;;;;;33.17;21.65;;;;;;;;;;5035710;28;20060;-76
2024/02/01 10:51:27;;;;;;;37.70;21.27;;;;;;;;;;5014482;28;20083;-77
2024/02/01 10:53:53;;;;;;;31.20;20.48;;;;;;;;;;5012047;28;20042;-81
2024/02/01 10:56:18;;;;;;;32.03;18.58;;;;;;;;;;5012795;28;20117;-78
2024/02/01 10:58:44;;;;;;;32.00;19.10;;;;;;;;;;5010709;28;20092;-78
2024/02/01 11:01:13;;;;;;;30.15;19.80;;;;;;;;;;5028755;28;20095;-78
2024/02/01 11:03:58;;;;;;;30.23;18.17;;;;;;;;;;5012218;28;20026;-79
2024/02/01 11:06:27;;;;;;;30.02;18.48;;;;;;;;;;5032694;28;20068;-76
2024/02/01 11:08:53;;;;;;;29.60;17.70;;;;;;;;;;5020707;28;20033;-79
2024/02/01 11:11:21;;;;;;;27.27;18.33;;;;;;;;;;5026646;28;20393;-79
2024/02/01 11:14:12;;;;;;;26.40;16.85;;;;;;;;;;4996639;28;20461;-79
2024/02/01 11:16:39;;;;;;;25.35;17.15;;;;;;;;;;5028461;28;20500;-77
2024/02/01 11:19:04;;;;;;;25.23;16.52;;;;;;;;;;5020468;28;20856;-81
2024/02/01 11:21:30;;;;;;;26.02;16.50;;;;;;;;;;5015060;28;20049;-83
2024/02/01 11:24:05;;;;;;;24.13;16.70;;;;;;;;;;5033381;28;20049;-84
2024/02/01 11:26:39;;;;;;;30.05;15.32;;;;;;;;;;5016707;28;20044;-80
2024/02/01 11:29:05;;;;;;;25.40;14.70;;;;;;;;;;5033350;28;20021;-82
2024/02/01 11:31:30;;;;;;;24.70;16.05;;;;;;;;;;5034061;28;20079;-79
2024/02/01 11:33:56;;;;;;;23.15;15.25;;;;;;;;;;5030054;28;20068;-80
2024/02/01 11:36:22;;;;;;;24.08;14.82;;;;;;;;;;5004325;28;20025;-82
2024/02/01 11:38:50;;;;;;;21.42;14.80;;;;;;;;;;5016754;28;20549;-80
2024/02/01 11:41:16;;;;;;;22.65;14.60;;;;;;;;;;5035542;28;20048;-81
2024/02/01 11:43:41;;;;;;;23.42;14.77;;;;;;;;;;5035321;28;20039;-81
2024/02/01 11:46:06;;;;;;;20.70;14.10;;;;;;;;;;5038587;28;20033;-80
2024/02/01 11:48:32;;;;;;;24.25;16.08;;;;;;;;;;5016959;28;20033;-79
2024/02/01 11:51:00;;;;;;;23.23;14.75;;;;;;;;;;4999336;28;20497;-81
2024/02/01 11:53:27;;;;;;;22.98;14.45;;;;;;;;;;5035931;28;20034;-81
2024/02/01 11:55:54;;;;;;;21.30;14.18;;;;;;;;;;5037102;28;20536;-80
2024/02/01 11:58:22;;;;;;;21.35;13.68;;;;;;;;;;5038032;28;20061;-81
2024/02/01 12:00:49;;;;;;;22.77;14.10;;;;;;;;;;5035416;28;20163;-81
2024/02/01 12:03:19;;;;;;;20.63;13.38;;;;;;;;;;5009362;28;20045;-81
2024/02/01 12:05:46;;;;;;;21.63;14.07;;;;;;;;;;5003388;28;20049;-80
2024/02/01 12:08:12;;;;;;;18.48;13.50;;;;;;;;;;5026800;28;20048;-81
2024/02/01 12:10:39;;;;;;;20.50;13.85;;;;;;;;;;5002994;28;20034;-80
2024/02/01 12:13:05;;;;;;;20.95;13.30;;;;;;;;;;5014619;28;20034;-81
2024/02/01 12:15:30;;;;;;;19.08;13.57;;;;;;;;;;5017464;28;20037;-81
2024/02/01 12:17:58;;;;;;;17.80;13.00;;;;;;;;;;5012440;28;20124;-80
2024/02/01 12:20:28;;;;;;;18.83;13.10;;;;;;;;;;5016519;28;20072;-81
2024/02/01 12:22:57;;;;;;;20.00;13.32;;;;;;;;;;5014973;28;20544;-81
2024/02/01 12:25:23;;;;;;;19.33;12.80;;;;;;;;;;5018345;28;20151;-81
2024/02/01 12:27:48;;;;;;;18.73;12.88;;;;;;;;;;5014532;28;20080;-80
2024/02/01 12:30:14;;;;;;;20.17;13.10;;;;;;;;;;5006365;28;20037;-81
2024/02/01 12:32:45;;;;;;;17.40;12.95;;;;;;;;;;5034143;28;20033;-81
2024/02/01 12:35:14;;;;;;;18.98;13.40;;;;;;;;;;5034855;28;20052;-83
2024/02/01 12:37:40;;;;;;;17.77;12.60;;;;;;;;;;5036108;28;20046;-81
2024/02/01 12:40:07;;;;;;;20.08;13.45;;;;;;;;;;5034511;28;20041;-81
2024/02/01 12:42:33;;;;;;;18.83;13.10;;;;;;;;;;4999649;28;20195;-82
2024/02/01 12:44:59;;;;;;;20.70;12.82;;;;;;;;;;5008019;28;20045;-81
2024/02/01 12:47:24;;;;;;;16.63;10.50;;;;;;;;;;5015971;28;20071;-77
2024/02/01 12:49:50;;;;;;;8.80;5.43;;;;;;;;;;5012166;28;20526;-75
2024/02/01 12:52:17;;;;;;;7.10;4.80;;;;;;;;;;5013867;28;20037;-76
2024/02/01 12:54:45;;;;;;;6.40;4.10;;;;;;;;;;5004773;28;20186;-81
2024/02/01 12:57:10;;;;;;;8.75;5.75;;;;;;;;;;5031225;28;20048;-82
2024/02/01 12:59:36;;;;;;;8.85;5.40;;;;;;;;;;5010292;28;20143;-83
2024/02/01 13:02:04;;;;;;;8.93;5.80;;;;;;;;;;5013820;28;20123;-81
2024/02/01 13:04:30;;;;;;;9.63;6.38;;;;;;;;;;5030663;28;20029;-78
2024/02/01 13:06:55;;;;;;;9.07;5.50;;;;;;;;;;5032937;28;20044;-75
2024/02/01 13:09:31;;;;;;;8.63;5.90;;;;;;;;;;5024948;28;20038;-79
2024/02/01 13:11:58;;;;;;;9.70;5.57;;;;;;;;;;5018823;28;20103;-80
2024/02/01 13:14:29;;;;;;;8.05;4.82;;;;;;;;;;4999725;28;20148;-81
2024/02/01 13:16:57;;;;;;;9.55;6.00;;;;;;;;;;5022779;28;20076;-80
2024/02/01 13:19:26;;;;;;;7.95;5.53;;;;;;;;;;5001772;28;20038;-81
2024/02/01 13:21:52;;;;;;;7.60;5.38;;;;;;;;;;5035265;28;20128;-82
2024/02/01 13:24:17;;;;;;;7.47;5.60;;;;;;;;;;5034527;28;20069;-80
2024/02/01 13:26:42;;;;;;;8.23;5.38;;;;;;;;;;5034092;28;20037;-81
2024/02/01 13:29:13;;;;;;;10.38;6.10;;;;;;;;;;5017404;28;20060;-81
2024/02/01 13:31:42;;;;;;;8.25;5.65;;;;;;;;;;5016024;28;20092;-80
2024/02/01 13:34:08;;;;;;;7.95;5.75;;;;;;;;;;5013132;28;20047;-81
2024/02/01 13:36:33;;;;;;;7.15;5.97;;;;;;;;;;5013912;28;20037;-79
2024/02/01 13:38:58;;;;;;;6.40;4.90;;;;;;;;;;5024974;28;20057;-75
2024/02/01 13:41:24;;;;;;;7.25;4.07;;;;;;;;;;4995378;28;20046;-75
2024/02/01 13:43:50;;;;;;;7.35;4.43;;;;;;;;;;5013006;28;20045;-75
2024/02/01 13:46:15;;;;;;;6.60;4.30;;;;;;;;;;5031427;28;20125;-75
2024/02/01 13:48:41;;;;;;;6.82;4.13;;;;;;;;;;5014465;28;20057;-75
2024/02/01 13:51:08;;;;;;;5.82;3.90;;;;;;;;;;5005709;28;20044;-75
2024/02/01 13:53:34;;;;;;;7.25;4.25;;;;;;;;;;5010347;28;20089;-75
2024/02/01 13:55:59;;;;;;;7.47;4.30;;;;;;;;;;5013124;28;20814;-73
2024/02/01 13:58:25;;;;;;;6.43;4.10;;;;;;;;;;5024029;28;20291;-76
2024/02/01 14:00:50;;;;;;;7.30;4.60;;;;;;;;;;5027970;28;20045;-75
2024/02/01 14:03:17;;;;;;;6.55;4.60;;;;;;;;;;5006119;28;20053;-75
2024/02/01 14:05:42;;;;;;;4.78;3.97;;;;;;;;;;5012955;28;20045;-76
2024/02/01 14:08:08;;;;;;;6.22;3.55;;;;;;;;;;5014287;28;20139;-77
2024/02/01 14:10:34;;;;;;;6.40;3.90;;;;;;;;;;4994720;28;20121;-77
2024/02/01 14:12:59;;;;;;;5.57;3.47;;;;;;;;;;5029039;28;20072;-78
2024/02/01 14:15:25;;;;;;;5.60;3.90;;;;;;;;;;5014547;28;20091;-77
2024/02/01 14:17:51;;;;;;;5.60;3.83;;;;;;;;;;5030771;28;20065;-78
2024/02/01 14:20:16;;;;;;;6.32;4.20;;;;;;;;;;5019898;28;20045;-78
2024/02/01 14:22:42;;;;;;;7.70;4.15;;;;;;;;;;5031164;28;20045;-79
2024/02/01 14:25:10;;;;;;;5.45;3.83;;;;;;;;;;4999037;28;20047;-78
2024/02/01 14:27:36;;;;;;;6.35;4.00;;;;;;;;;;5027464;28;20036;-79
2024/02/01 14:30:01;;;;;;;7.38;3.95;;;;;;;;;;5028829;28;20148;-78
2024/02/01 14:32:26;;;;;;;9.00;4.07;;;;;;;;;;4996440;28;20037;-78
2024/02/01 14:34:52;;;;;;;6.63;3.65;;;;;;;;;;5011046;28;20041;-77
2024/02/01 14:37:22;;;;;;;9.85;4.18;;;;;;;;;;5030867;28;20029;-77
2024/02/01 14:39:47;;;;;;;9.90;4.47;;;;;;;;;;4992815;28;20037;-77
2024/02/01 14:42:12;;;;;;;6.47;3.72;;;;;;;;;;5009699;28;20082;-78
2024/02/01 14:44:38;;;;;;;7.78;3.88;;;;;;;;;;5025135;28;20021;-77
2024/02/01 14:47:06;;;;;;;7.75;3.95;;;;;;;;;;5029679;28;20037;-79
2024/02/01 14:49:32;;;;;;;9.60;4.40;;;;;;;;;;5013460;28;20029;-77
2024/02/01 14:51:57;;;;;;;7.88;3.88;;;;;;;;;;5027338;28;20018;-77
2024/02/01 14:54:23;;;;;;;8.18;3.72;;;;;;;;;;4995855;28;20017;-77
2024/02/01 14:56:48;;;;;;;7.55;4.25;;;;;;;;;;5031070;28;20017;-77
2024/02/01 14:59:14;;;;;;;8.70;4.15;;;;;;;;;;5000584;28;20030;-78
2024/02/01 15:01:39;;;;;;;8.30;4.85;;;;;;;;;;5000711;28;20469;-75
2024/02/01 15:04:04;;;;;;;8.02;4.85;;;;;;;;;;5007435;28;20506;-81
2024/02/01 15:06:31;;;;;;;12.68;4.72;;;;;;;;;;5015990;28;20053;-84
2024/02/01 15:08:59;;;;;;;12.15;6.00;;;;;;;;;;5030268;28;20033;-77
2024/02/01 15:11:25;;;;;;;11.90;6.28;;;;;;;;;;5032152;28;20025;-76
2024/02/01 15:13:50;;;;;;;10.20;5.22;;;;;;;;;;5012606;28;20045;-76
2024/02/01 15:16:16;;;;;;;8.82;5.47;;;;;;;;;;5014461;28;20407;-81
2024/02/01 15:18:41;;;;;;;11.95;5.28;;;;;;;;;;5017239;28;20056;-82
2024/02/01 15:21:12;;;;;;;11.45;5.55;;;;;;;;;;5030846;28;20523;-79